createdAt,value
2023-05-25T00:01:05.137Z,10.18
2023-05-25T00:03:32.748Z,9.05
2023-05-25T00:06:03.066Z,9.13
2023-05-25T00:08:30.203Z,9.20
2023-05-25T00:10:57.213Z,9.68
2023-05-25T00:13:24.221Z,10.80
2023-05-25T00:15:51.246Z,10.82
2023-05-25T00:18:18.860Z,11.48
2023-05-25T00:20:47.447Z,9.98
2023-05-25T00:23:14.773Z,9.93
2023-05-25T00:25:41.887Z,11.57
2023-05-25T00:28:09.002Z,11.40
2023-05-25T00:30:36.000Z,11.35
2023-05-25T00:33:03.253Z,11.23
2023-05-25T00:35:30.310Z,11.65
2023-05-25T00:37:57.394Z,10.60
2023-05-25T00:40:24.404Z,10.90
2023-05-25T00:42:52.485Z,11.10
2023-05-25T00:45:19.541Z,10.82
2023-05-25T00:47:51.266Z,11.38
2023-05-25T00:50:23.462Z,11.63
2023-05-25T00:52:50.480Z,11.57
2023-05-25T00:55:21.021Z,12.02
2023-05-25T00:57:51.860Z,12.35
2023-05-25T01:00:21.362Z,11.07
2023-05-25T01:02:52.847Z,11.50
2023-05-25T01:05:21.501Z,11.35
2023-05-25T01:07:49.482Z,12.02
2023-05-25T01:10:17.778Z,11.48
2023-05-25T01:12:46.154Z,12.98
2023-05-25T01:15:13.143Z,12.15
2023-05-25T01:17:41.023Z,12.45
2023-05-25T01:20:11.611Z,12.45
2023-05-25T01:23:07.216Z,12.95
2023-05-25T01:25:51.644Z,12.88
2023-05-25T01:28:25.487Z,12.85
2023-05-25T01:30:53.500Z,12.68
2023-05-25T01:33:21.656Z,13.18
2023-05-25T01:35:51.233Z,12.38
2023-05-25T01:38:18.442Z,13.75
2023-05-25T01:40:45.380Z,12.35
2023-05-25T01:43:12.413Z,13.55
2023-05-25T01:45:39.525Z,13.15
2023-05-25T01:48:18.172Z,14.25
2023-05-25T01:51:11.061Z,14.25
2023-05-25T01:54:03.203Z,13.13
2023-05-25T01:56:32.471Z,12.85
2023-05-25T01:59:03.181Z,13.60
2023-05-25T02:01:31.478Z,13.27
2023-05-25T02:03:59.187Z,12.30
2023-05-25T02:06:26.476Z,13.35
2023-05-25T02:08:53.429Z,13.45
2023-05-25T02:11:20.522Z,13.02
2023-05-25T02:13:47.668Z,14.18
2023-05-25T02:16:14.726Z,13.38
2023-05-25T02:18:44.781Z,12.10
2023-05-25T02:21:12.337Z,12.85
2023-05-25T02:23:39.450Z,12.73
2023-05-25T02:26:06.518Z,11.90
2023-05-25T02:28:33.423Z,11.95
2023-05-25T02:31:00.444Z,12.38
2023-05-25T02:33:27.397Z,11.98
2023-05-25T02:35:54.346Z,12.82
2023-05-25T02:38:21.308Z,12.55
2023-05-25T02:40:48.225Z,12.20
2023-05-25T02:43:15.185Z,13.52
2023-05-25T02:45:42.310Z,13.20
2023-05-25T02:48:09.351Z,12.55
2023-05-25T02:50:37.133Z,12.80
2023-05-25T02:53:04.437Z,12.18
2023-05-25T02:55:31.405Z,12.48
2023-05-25T02:58:00.057Z,12.75
2023-05-25T03:00:27.216Z,12.93
2023-05-25T03:02:54.124Z,11.50
2023-05-25T03:05:21.080Z,12.55
2023-05-25T03:07:48.089Z,12.30
2023-05-25T03:10:15.077Z,12.13
2023-05-25T03:12:42.040Z,13.07
2023-05-25T03:15:10.760Z,12.77
2023-05-25T03:17:37.719Z,13.00
2023-05-25T03:20:05.635Z,12.45
2023-05-25T03:22:32.558Z,11.95
2023-05-25T03:24:59.790Z,12.38
2023-05-25T03:27:26.943Z,11.70
2023-05-25T03:29:53.847Z,12.05
2023-05-25T03:32:21.829Z,12.48
2023-05-25T03:34:48.856Z,12.95
2023-05-25T03:37:15.831Z,13.55
2023-05-25T03:39:42.785Z,12.05
2023-05-25T03:42:09.740Z,12.98
2023-05-25T03:44:37.539Z,11.82
2023-05-25T03:47:05.998Z,11.40
2023-05-25T03:49:33.445Z,11.88
2023-05-25T03:52:01.472Z,10.90
2023-05-25T03:54:28.745Z,11.25
2023-05-25T03:57:11.716Z,9.75
2023-05-25T03:59:38.702Z,9.52
2023-05-25T04:02:06.040Z,10.18
2023-05-25T04:04:33.041Z,9.63
2023-05-25T04:07:00.036Z,8.90
2023-05-25T04:09:26.988Z,10.18
2023-05-25T04:11:53.932Z,10.10
2023-05-25T04:14:21.288Z,9.43
2023-05-25T04:16:48.257Z,8.25
2023-05-25T04:19:15.293Z,8.27
2023-05-25T04:21:42.158Z,8.55
2023-05-25T04:24:09.128Z,8.23
2023-05-25T04:26:36.107Z,8.40
2023-05-25T04:29:03.076Z,8.45
2023-05-25T04:31:30.087Z,8.70
2023-05-25T04:33:59.120Z,9.07
2023-05-25T04:36:26.054Z,7.93
2023-05-25T04:38:55.024Z,8.95
2023-05-25T04:41:22.063Z,7.65
2023-05-25T04:44:05.870Z,8.60
2023-05-25T04:46:39.295Z,8.85
2023-05-25T04:49:08.583Z,7.97
2023-05-25T04:51:36.103Z,7.75
2023-05-25T04:54:03.212Z,8.25
2023-05-25T04:56:30.155Z,7.57
2023-05-25T04:58:57.068Z,7.22
2023-05-25T05:01:24.350Z,7.90
2023-05-25T05:03:51.561Z,7.40
2023-05-25T05:06:18.867Z,7.28
2023-05-25T05:08:45.770Z,6.65
2023-05-25T05:11:12.893Z,7.28
2023-05-25T05:13:39.820Z,6.93
2023-05-25T05:16:07.093Z,7.00
2023-05-25T05:18:34.012Z,7.28
2023-05-25T05:21:00.944Z,7.07
2023-05-25T05:23:27.890Z,5.85
2023-05-25T05:25:54.838Z,7.70
2023-05-25T05:28:21.826Z,6.15
2023-05-25T05:30:48.765Z,6.40
2023-05-25T05:33:16.072Z,5.82
2023-05-25T05:35:43.199Z,6.80
2023-05-25T05:38:10.492Z,5.60
2023-05-25T05:40:37.389Z,6.40
2023-05-25T05:43:04.289Z,5.88
2023-05-25T05:45:31.206Z,5.78
2023-05-25T05:47:58.241Z,5.60
2023-05-25T05:50:25.248Z,5.47
2023-05-25T05:52:53.683Z,5.40
2023-05-25T05:55:21.146Z,5.15
2023-05-25T05:57:48.145Z,5.53
2023-05-25T06:00:16.776Z,5.22
2023-05-25T06:02:43.925Z,5.43
2023-05-25T06:05:10.927Z,6.35
2023-05-25T06:07:38.707Z,5.88
2023-05-25T06:10:06.554Z,4.85
2023-05-25T06:12:33.505Z,5.32
2023-05-25T06:15:01.877Z,5.00
2023-05-25T06:17:29.996Z,5.00
2023-05-25T06:19:57.020Z,4.72
2023-05-25T06:22:27.914Z,5.43
2023-05-25T06:24:55.129Z,4.97
2023-05-25T06:27:23.689Z,4.72
2023-05-25T06:29:50.642Z,4.90
2023-05-25T06:32:17.761Z,4.30
2023-05-25T06:34:44.777Z,4.63
2023-05-25T06:37:11.954Z,4.93
2023-05-25T06:39:40.705Z,5.00
2023-05-25T06:42:07.873Z,4.70
2023-05-25T06:44:35.424Z,4.63
2023-05-25T06:47:02.918Z,4.68
2023-05-25T06:49:30.510Z,4.40
2023-05-25T06:51:57.441Z,4.72
2023-05-25T06:54:24.391Z,4.80
2023-05-25T06:56:51.632Z,4.88
2023-05-25T06:59:18.620Z,4.53
2023-05-25T07:01:49.212Z,5.18
2023-05-25T07:04:16.307Z,4.30
2023-05-25T07:06:43.338Z,5.03
2023-05-25T07:09:10.539Z,4.50
2023-05-25T07:11:37.438Z,4.50
2023-05-25T07:14:04.517Z,4.75
2023-05-25T07:16:32.152Z,4.45
2023-05-25T07:19:00.446Z,4.60
2023-05-25T07:21:27.894Z,4.07
2023-05-25T07:23:55.016Z,4.35
2023-05-25T07:26:23.499Z,4.40
2023-05-25T07:28:50.603Z,4.40
2023-05-25T07:31:17.824Z,4.68
2023-05-25T07:33:45.098Z,4.13
2023-05-25T07:36:12.668Z,4.43
2023-05-25T07:38:39.987Z,5.25
2023-05-25T07:41:07.072Z,4.43
2023-05-25T07:43:34.093Z,4.25
2023-05-25T07:46:02.595Z,4.15
2023-05-25T07:48:29.578Z,4.45
2023-05-25T07:50:56.632Z,4.20
2023-05-25T07:53:23.798Z,5.45
2023-05-25T07:55:50.960Z,4.13
2023-05-25T07:58:17.940Z,5.05
2023-05-25T08:00:45.080Z,4.38
2023-05-25T08:03:12.456Z,4.10
2023-05-25T08:05:40.129Z,5.20
2023-05-25T08:08:07.095Z,4.30
2023-05-25T08:10:34.162Z,4.22
2023-05-25T08:13:01.197Z,4.38
2023-05-25T08:15:28.420Z,3.97
2023-05-25T08:17:56.778Z,3.53
2023-05-25T08:20:25.272Z,3.85
2023-05-25T08:22:54.729Z,3.88
2023-05-25T08:25:22.460Z,4.03
2023-05-25T08:27:49.381Z,4.13
2023-05-25T08:30:16.537Z,3.67
2023-05-25T08:32:43.598Z,3.40
2023-05-25T08:35:10.603Z,3.28
2023-05-25T08:37:37.808Z,3.60
2023-05-25T08:40:06.318Z,3.47
2023-05-25T08:42:33.467Z,3.65
2023-05-25T08:45:00.434Z,3.50
2023-05-25T08:47:32.212Z,3.75
2023-05-25T08:50:01.851Z,3.40
2023-05-25T08:52:32.521Z,3.80
2023-05-25T08:55:04.929Z,3.80
2023-05-25T08:57:53.694Z,3.78
2023-05-25T09:00:34.465Z,3.88
2023-05-25T09:03:12.247Z,3.80
2023-05-25T09:05:39.527Z,4.00
2023-05-25T09:08:06.996Z,3.97
2023-05-25T09:10:35.630Z,3.83
2023-05-25T09:13:19.084Z,4.40
2023-05-25T09:15:48.870Z,3.72
2023-05-25T09:18:15.832Z,3.63
2023-05-25T09:20:45.234Z,3.70
2023-05-25T09:23:14.909Z,3.58
2023-05-25T09:25:42.229Z,3.55
2023-05-25T09:30:39.902Z,3.33
2023-05-25T09:33:14.184Z,3.83
2023-05-25T09:35:41.609Z,3.80
2023-05-25T09:38:08.775Z,3.60
2023-05-25T09:40:38.045Z,3.80
2023-05-25T09:43:05.286Z,3.97
2023-05-25T09:45:32.571Z,3.67
2023-05-25T09:48:00.325Z,3.85
2023-05-25T09:50:30.274Z,3.60
2023-05-25T09:53:00.162Z,4.15
2023-05-25T09:55:40.341Z,3.60
2023-05-25T09:58:17.490Z,3.63
2023-05-25T10:00:46.532Z,3.70
2023-05-25T10:03:15.477Z,4.60
2023-05-25T10:05:42.764Z,3.67
2023-05-25T10:08:11.474Z,3.58
2023-05-25T10:10:39.459Z,3.47
2023-05-25T10:13:08.979Z,3.35
2023-05-25T10:15:39.809Z,3.40
2023-05-25T10:18:08.949Z,4.00
2023-05-25T10:20:36.514Z,3.53
2023-05-25T10:23:12.921Z,3.63
2023-05-25T10:25:48.810Z,3.70
2023-05-25T10:28:25.667Z,3.22
2023-05-25T10:30:53.781Z,3.45
2023-05-25T10:33:21.731Z,5.47
2023-05-25T10:36:02.328Z,3.65
2023-05-25T10:38:39.524Z,3.60
2023-05-25T10:41:08.739Z,4.88
2023-05-25T10:43:36.163Z,3.70
2023-05-25T10:46:04.518Z,3.88
2023-05-25T10:48:46.376Z,3.90
2023-05-25T10:51:14.344Z,3.90
2023-05-25T10:53:46.286Z,4.07
2023-05-25T10:56:14.406Z,3.88
2023-05-25T10:58:46.557Z,3.65
2023-05-25T11:01:16.027Z,4.03
2023-05-25T11:03:58.920Z,3.97
2023-05-25T11:06:52.341Z,4.40
2023-05-25T11:09:43.636Z,3.45
2023-05-25T11:12:21.676Z,3.65
2023-05-25T11:15:17.264Z,3.70
2023-05-25T11:18:01.486Z,3.72
2023-05-25T11:22:58.095Z,3.67
2023-05-25T11:25:42.927Z,4.07
2023-05-25T11:28:11.999Z,3.70
2023-05-25T11:30:41.414Z,3.75
2023-05-25T11:33:09.284Z,3.65
2023-05-25T11:35:37.344Z,3.95
2023-05-25T11:38:08.741Z,4.75
2023-05-25T11:40:38.298Z,4.15
2023-05-25T11:43:08.221Z,3.53
2023-05-25T11:45:37.359Z,3.55
2023-05-25T11:48:07.595Z,3.78
2023-05-25T11:50:34.662Z,3.95
2023-05-25T11:53:07.238Z,3.40
2023-05-25T11:55:34.316Z,3.90
2023-05-25T11:58:01.363Z,3.60
2023-05-25T12:00:28.714Z,3.25
2023-05-25T12:02:56.575Z,3.90
2023-05-25T12:05:24.657Z,3.55
2023-05-25T12:07:52.280Z,3.88
2023-05-25T12:10:19.303Z,3.45
2023-05-25T12:12:51.250Z,3.97
2023-05-25T12:15:24.936Z,3.60
2023-05-25T12:17:54.009Z,3.90
2023-05-25T12:20:21.935Z,3.10
2023-05-25T12:22:49.284Z,3.15
2023-05-25T12:25:21.040Z,3.20
2023-05-25T12:27:48.072Z,3.17
2023-05-25T12:30:15.374Z,3.35
2023-05-25T12:33:00.957Z,3.40
2023-05-25T12:35:30.021Z,2.80
2023-05-25T12:38:13.931Z,3.20
2023-05-25T12:40:44.606Z,2.58
2023-05-25T12:43:12.182Z,2.80
2023-05-25T12:45:43.660Z,3.05
2023-05-25T12:48:10.900Z,3.28
2023-05-25T12:50:38.012Z,2.83
2023-05-25T12:53:05.729Z,3.10
2023-05-25T12:55:35.607Z,3.00
2023-05-25T12:58:05.709Z,3.47
2023-05-25T13:00:34.169Z,3.05
2023-05-25T13:03:01.778Z,3.00
2023-05-25T13:05:37.045Z,2.53
2023-05-25T13:08:05.474Z,2.90
2023-05-25T13:10:33.348Z,2.60
2023-05-25T13:13:00.997Z,2.85
2023-05-25T13:15:28.378Z,3.10
2023-05-25T13:17:58.492Z,2.60
2023-05-25T13:20:27.379Z,2.80
2023-05-25T13:22:57.915Z,3.00
2023-05-25T13:25:27.595Z,3.42
2023-05-25T13:27:56.020Z,3.05
2023-05-25T13:30:23.069Z,3.10
2023-05-25T13:32:51.678Z,2.67
2023-05-25T13:35:24.205Z,3.00
2023-05-25T13:37:51.583Z,3.03
2023-05-25T13:40:19.214Z,3.08
2023-05-25T13:42:46.216Z,3.20
2023-05-25T13:45:13.947Z,2.65
2023-05-25T13:47:44.080Z,2.88
2023-05-25T13:50:11.765Z,2.88
2023-05-25T13:52:38.742Z,3.30
2023-05-25T13:55:06.345Z,3.05
2023-05-25T13:57:33.266Z,2.58
2023-05-25T14:00:00.189Z,2.85
2023-05-25T14:02:27.169Z,2.65
2023-05-25T14:04:54.151Z,2.60
2023-05-25T14:07:21.109Z,2.90
2023-05-25T14:09:48.004Z,2.58
2023-05-25T14:12:14.914Z,3.28
2023-05-25T14:14:41.839Z,2.58
2023-05-25T14:17:09.016Z,2.65
2023-05-25T14:19:36.196Z,2.72
2023-05-25T14:22:13.159Z,2.85
2023-05-25T14:24:41.063Z,3.20
2023-05-25T14:27:08.033Z,2.70
2023-05-25T14:29:35.120Z,3.05
2023-05-25T14:32:02.380Z,2.90
2023-05-25T14:34:29.657Z,2.85
2023-05-25T14:36:56.855Z,2.40
2023-05-25T14:39:23.830Z,2.63
2023-05-25T14:41:50.995Z,2.83
2023-05-25T14:44:17.992Z,2.65
2023-05-25T14:46:45.169Z,2.83
2023-05-25T14:49:13.703Z,2.92
2023-05-25T14:51:40.662Z,3.15
2023-05-25T14:54:08.028Z,2.90
2023-05-25T14:56:35.220Z,2.70
2023-05-25T14:59:20.756Z,3.35
2023-05-25T15:01:47.790Z,2.60
2023-05-25T15:04:14.890Z,2.83
2023-05-25T15:06:42.117Z,2.88
2023-05-25T15:09:09.681Z,2.58
2023-05-25T15:11:36.626Z,3.10
2023-05-25T15:14:03.641Z,2.85
2023-05-25T15:16:30.617Z,2.90
2023-05-25T15:18:57.696Z,2.88
2023-05-25T15:21:25.661Z,2.80
2023-05-25T15:23:52.982Z,3.15
2023-05-25T15:26:19.895Z,2.80
2023-05-25T15:28:46.806Z,2.75
2023-05-25T15:31:13.702Z,2.70
2023-05-25T15:33:51.398Z,3.25
2023-05-25T15:36:23.388Z,3.40
2023-05-25T15:38:50.517Z,2.72
2023-05-25T15:41:17.855Z,2.72
2023-05-25T15:44:01.095Z,2.42
2023-05-25T15:46:28.693Z,2.92
2023-05-25T15:48:56.253Z,2.88
2023-05-25T15:51:23.201Z,2.17
2023-05-25T15:53:50.205Z,2.40
2023-05-25T15:56:17.152Z,2.60
2023-05-25T15:58:47.225Z,2.10
2023-05-25T16:01:14.328Z,2.35
2023-05-25T16:03:43.225Z,2.72
2023-05-25T16:06:11.108Z,3.58
2023-05-25T16:08:38.066Z,2.30
2023-05-25T16:11:05.538Z,2.42
2023-05-25T16:13:32.517Z,2.03
2023-05-25T16:15:59.504Z,2.33
2023-05-25T16:18:26.788Z,2.10
2023-05-25T16:20:55.938Z,2.65
2023-05-25T16:23:23.653Z,2.35
2023-05-25T16:25:51.103Z,2.33
2023-05-25T16:28:18.169Z,2.47
2023-05-25T16:30:45.420Z,2.03
2023-05-25T16:33:12.457Z,2.38
2023-05-25T16:35:39.413Z,2.22
2023-05-25T16:38:06.296Z,1.95
2023-05-25T16:40:33.672Z,2.72
2023-05-25T16:43:00.708Z,2.20
2023-05-25T16:45:27.769Z,2.20
2023-05-25T16:47:54.903Z,2.33
2023-05-25T16:50:21.906Z,2.25
2023-05-25T16:52:48.844Z,3.10
2023-05-25T16:55:16.416Z,2.55
2023-05-25T16:57:43.462Z,2.60
2023-05-25T17:00:11.011Z,2.63
2023-05-25T17:02:38.003Z,2.15
2023-05-25T17:05:06.778Z,2.25
2023-05-25T17:07:34.821Z,2.42
2023-05-25T17:10:02.316Z,2.60
2023-05-25T17:12:29.264Z,2.75
2023-05-25T17:14:56.152Z,2.10
2023-05-25T17:17:23.142Z,2.33
2023-05-25T17:19:50.060Z,2.50
2023-05-25T17:22:16.979Z,2.28
2023-05-25T17:24:43.890Z,2.20
2023-05-25T17:27:10.938Z,3.38
2023-05-25T17:29:38.034Z,3.22
2023-05-25T17:32:05.416Z,2.60
2023-05-25T17:34:32.416Z,2.83
2023-05-25T17:36:59.312Z,2.90
2023-05-25T17:39:26.240Z,2.53
2023-05-25T17:41:53.182Z,2.50
2023-05-25T17:44:20.201Z,2.83
2023-05-25T17:46:47.075Z,2.97
2023-05-25T17:49:14.044Z,2.13
2023-05-25T17:51:40.947Z,2.63
2023-05-25T17:54:08.023Z,2.25
2023-05-25T17:56:34.955Z,2.60
2023-05-25T17:59:01.938Z,2.22
2023-05-25T18:01:28.978Z,2.35
2023-05-25T18:03:56.384Z,2.45
2023-05-25T18:06:23.425Z,3.03
2023-05-25T18:08:50.617Z,2.30
2023-05-25T18:11:17.645Z,2.28
2023-05-25T18:13:44.687Z,2.70
2023-05-25T18:16:11.681Z,2.80
2023-05-25T18:18:38.638Z,2.30
2023-05-25T18:21:05.970Z,2.53
2023-05-25T18:23:32.900Z,2.40
2023-05-25T18:25:59.821Z,2.50
2023-05-25T18:28:27.802Z,2.63
2023-05-25T18:30:55.786Z,2.25
2023-05-25T18:33:22.694Z,2.85
2023-05-25T18:35:49.620Z,2.80
2023-05-25T18:38:16.550Z,2.90
2023-05-25T18:40:43.551Z,2.58
2023-05-25T18:43:10.486Z,2.20
2023-05-25T18:45:37.390Z,2.15
2023-05-25T18:48:07.603Z,2.22
2023-05-25T18:50:35.557Z,2.20
2023-05-25T18:53:02.670Z,2.17
2023-05-25T18:55:29.661Z,2.20
2023-05-25T18:57:56.978Z,3.63
2023-05-25T19:00:23.962Z,2.40
2023-05-25T19:02:51.064Z,2.65
2023-05-25T19:05:19.987Z,2.75
2023-05-25T19:10:17.286Z,2.63
2023-05-25T19:12:44.266Z,2.40
2023-05-25T19:15:11.281Z,3.00
2023-05-25T19:17:38.204Z,3.20
2023-05-25T19:20:05.847Z,2.80
2023-05-25T19:22:32.834Z,2.92
2023-05-25T19:25:01.157Z,2.85
2023-05-25T19:27:28.295Z,3.03
2023-05-25T19:29:55.215Z,2.60
2023-05-25T19:32:22.238Z,3.20
2023-05-25T19:34:49.266Z,3.20
2023-05-25T19:37:16.253Z,3.45
2023-05-25T19:39:43.256Z,3.55
2023-05-25T19:42:10.244Z,3.78
2023-05-25T19:44:37.272Z,3.13
2023-05-25T19:47:04.353Z,4.22
2023-05-25T19:49:31.736Z,3.60
2023-05-25T19:51:58.690Z,4.07
2023-05-25T19:54:25.601Z,3.75
2023-05-25T19:56:52.542Z,3.90
2023-05-25T19:59:21.314Z,3.95
2023-05-25T20:01:48.525Z,3.83
2023-05-25T20:04:15.698Z,4.22
2023-05-25T20:06:42.627Z,3.63
2023-05-25T20:09:12.660Z,3.55
2023-05-25T20:11:39.805Z,4.10
2023-05-25T20:14:08.010Z,4.07
2023-05-25T20:16:35.099Z,4.35
2023-05-25T20:19:02.475Z,3.70
2023-05-25T20:21:30.646Z,3.75
2023-05-25T20:23:57.712Z,4.20
2023-05-25T20:26:24.824Z,4.20
2023-05-25T20:28:51.782Z,4.57
2023-05-25T20:31:18.697Z,4.47
2023-05-25T20:33:46.941Z,4.32
2023-05-25T20:36:15.758Z,5.65
2023-05-25T20:38:45.489Z,4.45
2023-05-25T20:41:12.529Z,5.03
2023-05-25T20:43:39.957Z,5.28
2023-05-25T20:46:08.458Z,4.80
2023-05-25T20:48:36.793Z,4.50
2023-05-25T20:51:03.758Z,5.82
2023-05-25T20:53:31.315Z,4.75
2023-05-25T20:55:58.866Z,4.82
2023-05-25T20:58:25.857Z,4.55
2023-05-25T21:00:52.836Z,4.38
2023-05-25T21:03:19.962Z,4.80
2023-05-25T21:05:47.270Z,4.80
2023-05-25T21:08:14.536Z,4.75
2023-05-25T21:10:41.656Z,4.85
2023-05-25T21:13:08.600Z,5.43
2023-05-25T21:15:35.757Z,4.93
2023-05-25T21:18:03.658Z,4.97
2023-05-25T21:20:30.787Z,4.72
2023-05-25T21:22:57.807Z,4.85
2023-05-25T21:25:24.741Z,4.45
2023-05-25T21:27:51.695Z,4.65
2023-05-25T21:30:19.485Z,4.80
2023-05-25T21:32:47.269Z,5.78
2023-05-25T21:35:16.161Z,5.82
2023-05-25T21:37:43.052Z,5.30
2023-05-25T21:40:10.342Z,4.90
2023-05-25T21:42:37.258Z,4.45
2023-05-25T21:45:04.654Z,4.70
2023-05-25T21:47:31.619Z,5.50
2023-05-25T21:49:58.558Z,5.22
2023-05-25T21:52:25.525Z,4.47
2023-05-25T21:54:52.549Z,6.22
2023-05-25T21:57:19.499Z,5.70
2023-05-25T21:59:46.428Z,6.72
2023-05-25T22:02:13.426Z,4.65
2023-05-25T22:04:40.445Z,5.70
2023-05-25T22:07:07.406Z,5.43
2023-05-25T22:09:34.301Z,4.85
2023-05-25T22:12:02.444Z,5.00
2023-05-25T22:14:29.383Z,5.30
2023-05-25T22:16:56.380Z,5.47
2023-05-25T22:19:23.440Z,5.72
2023-05-25T22:21:50.550Z,4.65
2023-05-25T22:24:17.531Z,5.25
2023-05-25T22:26:44.501Z,5.10
2023-05-25T22:29:14.385Z,4.53
2023-05-25T22:31:41.422Z,5.30
2023-05-25T22:34:08.353Z,5.57
2023-05-25T22:36:36.801Z,4.70
2023-05-25T22:39:03.852Z,4.95
2023-05-25T22:41:30.889Z,4.97
2023-05-25T22:43:57.808Z,6.47
2023-05-25T22:46:25.043Z,5.40
2023-05-25T22:48:52.082Z,5.03
2023-05-25T22:51:19.021Z,4.50
2023-05-25T22:53:46.234Z,6.15
2023-05-25T22:56:13.306Z,5.50
2023-05-25T22:58:40.218Z,5.07
2023-05-25T23:01:07.204Z,4.28
2023-05-25T23:03:34.271Z,4.65
2023-05-25T23:06:01.279Z,4.88
2023-05-25T23:08:28.284Z,5.45
2023-05-25T23:10:55.249Z,4.10
2023-05-25T23:13:24.369Z,4.07
2023-05-25T23:15:51.406Z,4.40
2023-05-25T23:18:18.568Z,4.80
2023-05-25T23:20:45.617Z,4.45
2023-05-25T23:23:12.946Z,5.03
2023-05-25T23:25:39.902Z,4.10
2023-05-25T23:28:06.891Z,4.72
2023-05-25T23:30:33.849Z,4.57
2023-05-25T23:33:01.008Z,4.85
2023-05-25T23:35:28.699Z,5.15
2023-05-25T23:37:57.700Z,4.38
2023-05-25T23:40:24.780Z,5.72
2023-05-25T23:42:52.173Z,4.40
2023-05-25T23:45:19.261Z,4.70
2023-05-25T23:47:46.465Z,4.50
2023-05-25T23:50:13.444Z,4.88
2023-05-25T23:52:41.477Z,6.57
2023-05-25T23:55:08.904Z,3.70
2023-05-25T23:57:36.689Z,4.88
